sensor_id;sensor_type;location;lat;lon;timestamp;temperature;humidity
30572;DHT22;17348;50.948;10.696;2023-12-28T00:01:27;8.30;99.90
30572;DHT22;17348;50.948;10.696;2023-12-28T00:04:30;8.40;99.90
30572;DHT22;17348;50.948;10.696;2023-12-28T00:07:35;8.40;99.90
30572;DHT22;17348;50.948;10.696;2023-12-28T00:10:37;8.40;99.90
30572;DHT22;17348;50.948;10.696;2023-12-28T00:13:45;8.40;99.90
30572;DHT22;17348;50.948;10.696;2023-12-28T00:16:47;8.40;99.90
30572;DHT22;17348;50.948;10.696;2023-12-28T00:19:51;8.40;99.90
30572;DHT22;17348;50.948;10.696;2023-12-28T00:22:53;8.40;99.90
30572;DHT22;17348;50.948;10.696;2023-12-28T00:25:55;8.40;99.90
30572;DHT22;17348;50.948;10.696;2023-12-28T00:28:57;8.30;99.90
30572;DHT22;17348;50.948;10.696;2023-12-28T00:32:00;8.30;99.90
30572;DHT22;17348;50.948;10.696;2023-12-28T00:35:04;8.30;99.90
30572;DHT22;17348;50.948;10.696;2023-12-28T00:38:07;8.40;99.90
30572;DHT22;17348;50.948;10.696;2023-12-28T00:41:12;8.40;99.90
30572;DHT22;17348;50.948;10.696;2023-12-28T00:44:14;8.40;99.90
30572;DHT22;17348;50.948;10.696;2023-12-28T00:47:16;8.30;99.90
30572;DHT22;17348;50.948;10.696;2023-12-28T00:50:20;8.40;99.90
30572;DHT22;17348;50.948;10.696;2023-12-28T00:53:22;8.40;99.90
30572;DHT22;17348;50.948;10.696;2023-12-28T00:56:25;8.30;99.90
30572;DHT22;17348;50.948;10.696;2023-12-28T00:59:27;8.30;99.90
30572;DHT22;17348;50.948;10.696;2023-12-28T01:02:30;8.30;99.90
30572;DHT22;17348;50.948;10.696;2023-12-28T01:05:34;8.40;99.90
30572;DHT22;17348;50.948;10.696;2023-12-28T01:08:36;8.40;99.90
30572;DHT22;17348;50.948;10.696;2023-12-28T01:11:39;8.40;99.90
30572;DHT22;17348;50.948;10.696;2023-12-28T01:14:41;8.40;99.90
30572;DHT22;17348;50.948;10.696;2023-12-28T01:17:44;8.40;99.90
30572;DHT22;17348;50.948;10.696;2023-12-28T01:20:47;8.40;99.90
30572;DHT22;17348;50.948;10.696;2023-12-28T01:23:52;8.40;99.90
30572;DHT22;17348;50.948;10.696;2023-12-28T01:26:57;8.40;99.90
30572;DHT22;17348;50.948;10.696;2023-12-28T01:30:00;8.40;99.90
30572;DHT22;17348;50.948;10.696;2023-12-28T01:33:03;8.40;99.90
30572;DHT22;17348;50.948;10.696;2023-12-28T01:36:18;8.30;99.90
30572;DHT22;17348;50.948;10.696;2023-12-28T01:39:21;8.40;99.90
30572;DHT22;17348;50.948;10.696;2023-12-28T01:42:23;8.40;99.90
30572;DHT22;17348;50.948;10.696;2023-12-28T01:45:25;8.40;99.90
30572;DHT22;17348;50.948;10.696;2023-12-28T01:48:28;8.40;99.90
30572;DHT22;17348;50.948;10.696;2023-12-28T01:51:33;8.50;99.90
30572;DHT22;17348;50.948;10.696;2023-12-28T01:54:36;8.50;99.90
30572;DHT22;17348;50.948;10.696;2023-12-28T01:57:39;8.50;99.90
30572;DHT22;17348;50.948;10.696;2023-12-28T02:00:41;8.50;99.90
30572;DHT22;17348;50.948;10.696;2023-12-28T02:03:46;8.50;99.90
30572;DHT22;17348;50.948;10.696;2023-12-28T02:06:50;8.60;99.90
30572;DHT22;17348;50.948;10.696;2023-12-28T02:09:52;8.60;99.90
30572;DHT22;17348;50.948;10.696;2023-12-28T02:12:54;8.70;99.90
30572;DHT22;17348;50.948;10.696;2023-12-28T02:16:00;8.70;99.90
30572;DHT22;17348;50.948;10.696;2023-12-28T02:19:17;8.70;99.90
30572;DHT22;17348;50.948;10.696;2023-12-28T02:22:24;8.80;99.90
30572;DHT22;17348;50.948;10.696;2023-12-28T02:25:28;8.80;99.90
30572;DHT22;17348;50.948;10.696;2023-12-28T02:28:33;8.80;99.90
30572;DHT22;17348;50.948;10.696;2023-12-28T02:31:39;8.80;99.90
30572;DHT22;17348;50.948;10.696;2023-12-28T02:34:44;8.90;99.90
30572;DHT22;17348;50.948;10.696;2023-12-28T02:37:50;8.90;99.90
30572;DHT22;17348;50.948;10.696;2023-12-28T02:40:55;8.90;99.90
30572;DHT22;17348;50.948;10.696;2023-12-28T02:43:59;8.90;99.90
30572;DHT22;17348;50.948;10.696;2023-12-28T02:47:01;8.90;99.90
30572;DHT22;17348;50.948;10.696;2023-12-28T02:50:05;8.90;99.90
30572;DHT22;17348;50.948;10.696;2023-12-28T02:53:07;8.90;99.90
30572;DHT22;17348;50.948;10.696;2023-12-28T02:56:11;9.00;99.90
30572;DHT22;17348;50.948;10.696;2023-12-28T02:59:13;8.90;99.90
30572;DHT22;17348;50.948;10.696;2023-12-28T03:02:15;8.90;99.90
30572;DHT22;17348;50.948;10.696;2023-12-28T03:05:18;8.90;99.90
30572;DHT22;17348;50.948;10.696;2023-12-28T03:08:20;8.90;99.90
30572;DHT22;17348;50.948;10.696;2023-12-28T03:11:24;8.90;99.90
30572;DHT22;17348;50.948;10.696;2023-12-28T03:14:26;8.90;99.90
30572;DHT22;17348;50.948;10.696;2023-12-28T03:17:28;8.90;99.90
30572;DHT22;17348;50.948;10.696;2023-12-28T03:20:31;8.90;99.90
30572;DHT22;17348;50.948;10.696;2023-12-28T03:23:34;8.90;99.90
30572;DHT22;17348;50.948;10.696;2023-12-28T03:26:39;8.90;99.90
30572;DHT22;17348;50.948;10.696;2023-12-28T03:29:41;8.80;99.90
30572;DHT22;17348;50.948;10.696;2023-12-28T03:32:44;8.80;99.90
30572;DHT22;17348;50.948;10.696;2023-12-28T03:35:46;8.70;99.90
30572;DHT22;17348;50.948;10.696;2023-12-28T03:38:48;8.60;99.90
30572;DHT22;17348;50.948;10.696;2023-12-28T03:41:52;8.60;99.90
30572;DHT22;17348;50.948;10.696;2023-12-28T03:44:55;8.60;99.90
30572;DHT22;17348;50.948;10.696;2023-12-28T03:47:57;8.50;99.90
30572;DHT22;17348;50.948;10.696;2023-12-28T03:50:59;8.50;99.90
30572;DHT22;17348;50.948;10.696;2023-12-28T03:54:01;8.40;99.90
30572;DHT22;17348;50.948;10.696;2023-12-28T03:57:05;8.40;99.90
30572;DHT22;17348;50.948;10.696;2023-12-28T04:00:10;8.30;99.90
30572;DHT22;17348;50.948;10.696;2023-12-28T04:03:12;8.20;99.90
30572;DHT22;17348;50.948;10.696;2023-12-28T04:06:15;8.20;99.90
30572;DHT22;17348;50.948;10.696;2023-12-28T04:09:17;8.10;99.90
30572;DHT22;17348;50.948;10.696;2023-12-28T04:12:21;8.10;99.90
30572;DHT22;17348;50.948;10.696;2023-12-28T04:15:24;8.10;99.90
30572;DHT22;17348;50.948;10.696;2023-12-28T04:18:26;8.10;99.90
30572;DHT22;17348;50.948;10.696;2023-12-28T04:21:28;8.10;99.90
30572;DHT22;17348;50.948;10.696;2023-12-28T04:24:31;8.10;99.90
30572;DHT22;17348;50.948;10.696;2023-12-28T04:27:35;8.20;99.90
30572;DHT22;17348;50.948;10.696;2023-12-28T04:30:37;8.20;99.90
30572;DHT22;17348;50.948;10.696;2023-12-28T04:33:40;8.20;99.90
30572;DHT22;17348;50.948;10.696;2023-12-28T04:36:45;8.30;99.90
30572;DHT22;17348;50.948;10.696;2023-12-28T04:39:49;8.30;99.90
30572;DHT22;17348;50.948;10.696;2023-12-28T04:42:53;8.40;99.90
30572;DHT22;17348;50.948;10.696;2023-12-28T04:45:55;8.50;99.90
30572;DHT22;17348;50.948;10.696;2023-12-28T04:48:57;8.50;99.90
30572;DHT22;17348;50.948;10.696;2023-12-28T04:52:00;8.40;99.90
30572;DHT22;17348;50.948;10.696;2023-12-28T04:55:02;8.40;99.90
30572;DHT22;17348;50.948;10.696;2023-12-28T04:58:07;8.30;99.90
30572;DHT22;17348;50.948;10.696;2023-12-28T05:01:09;8.20;99.90
30572;DHT22;17348;50.948;10.696;2023-12-28T05:04:11;8.10;99.90
30572;DHT22;17348;50.948;10.696;2023-12-28T05:07:14;8.10;99.90
30572;DHT22;17348;50.948;10.696;2023-12-28T05:10:18;8.10;99.90
30572;DHT22;17348;50.948;10.696;2023-12-28T05:13:22;8.10;99.90
30572;DHT22;17348;50.948;10.696;2023-12-28T05:16:24;8.10;99.90
30572;DHT22;17348;50.948;10.696;2023-12-28T05:19:26;8.10;99.90
30572;DHT22;17348;50.948;10.696;2023-12-28T05:22:29;8.10;99.90
30572;DHT22;17348;50.948;10.696;2023-12-28T05:25:31;8.10;99.90
30572;DHT22;17348;50.948;10.696;2023-12-28T05:28:35;8.20;99.90
30572;DHT22;17348;50.948;10.696;2023-12-28T05:31:37;8.20;99.90
30572;DHT22;17348;50.948;10.696;2023-12-28T05:34:39;8.20;99.90
30572;DHT22;17348;50.948;10.696;2023-12-28T05:37:41;8.30;99.90
30572;DHT22;17348;50.948;10.696;2023-12-28T05:40:44;8.30;99.90
30572;DHT22;17348;50.948;10.696;2023-12-28T05:43:48;8.30;99.90
30572;DHT22;17348;50.948;10.696;2023-12-28T05:46:50;8.30;99.90
30572;DHT22;17348;50.948;10.696;2023-12-28T05:49:53;8.30;99.90
30572;DHT22;17348;50.948;10.696;2023-12-28T05:52:55;8.30;99.90
30572;DHT22;17348;50.948;10.696;2023-12-28T05:55:57;8.30;99.90
30572;DHT22;17348;50.948;10.696;2023-12-28T05:59:05;8.40;99.90
30572;DHT22;17348;50.948;10.696;2023-12-28T06:02:07;8.30;99.90
30572;DHT22;17348;50.948;10.696;2023-12-28T06:05:10;8.40;99.90
30572;DHT22;17348;50.948;10.696;2023-12-28T06:08:12;8.40;99.90
30572;DHT22;17348;50.948;10.696;2023-12-28T06:11:15;8.40;99.90
30572;DHT22;17348;50.948;10.696;2023-12-28T06:14:18;8.40;99.90
30572;DHT22;17348;50.948;10.696;2023-12-28T06:17:20;8.40;99.90
30572;DHT22;17348;50.948;10.696;2023-12-28T06:20:23;8.40;99.90
30572;DHT22;17348;50.948;10.696;2023-12-28T06:23:25;8.40;99.90
30572;DHT22;17348;50.948;10.696;2023-12-28T06:26:27;8.30;99.90
30572;DHT22;17348;50.948;10.696;2023-12-28T06:29:31;8.30;99.90
30572;DHT22;17348;50.948;10.696;2023-12-28T06:32:33;8.30;99.90
30572;DHT22;17348;50.948;10.696;2023-12-28T06:35:36;8.30;99.90
30572;DHT22;17348;50.948;10.696;2023-12-28T06:38:39;8.30;99.90
30572;DHT22;17348;50.948;10.696;2023-12-28T06:41:43;8.30;99.90
30572;DHT22;17348;50.948;10.696;2023-12-28T06:44:49;8.30;99.90
30572;DHT22;17348;50.948;10.696;2023-12-28T06:47:55;8.30;99.90
30572;DHT22;17348;50.948;10.696;2023-12-28T06:50:57;8.30;99.90
30572;DHT22;17348;50.948;10.696;2023-12-28T06:53:59;8.20;99.90
30572;DHT22;17348;50.948;10.696;2023-12-28T06:57:02;8.20;99.90
30572;DHT22;17348;50.948;10.696;2023-12-28T07:00:10;8.20;99.90
30572;DHT22;17348;50.948;10.696;2023-12-28T07:03:12;8.20;99.90
30572;DHT22;17348;50.948;10.696;2023-12-28T07:06:14;8.20;99.90
30572;DHT22;17348;50.948;10.696;2023-12-28T07:09:17;8.10;99.90
30572;DHT22;17348;50.948;10.696;2023-12-28T07:12:19;8.10;99.90
30572;DHT22;17348;50.948;10.696;2023-12-28T07:15:24;8.10;99.90
30572;DHT22;17348;50.948;10.696;2023-12-28T07:18:26;8.10;99.90
30572;DHT22;17348;50.948;10.696;2023-12-28T07:21:28;8.10;99.90
30572;DHT22;17348;50.948;10.696;2023-12-28T07:24:31;8.00;99.90
30572;DHT22;17348;50.948;10.696;2023-12-28T07:27:33;8.00;99.90
30572;DHT22;17348;50.948;10.696;2023-12-28T07:30:38;8.00;99.90
30572;DHT22;17348;50.948;10.696;2023-12-28T07:33:40;7.90;99.90
30572;DHT22;17348;50.948;10.696;2023-12-28T07:36:43;7.90;99.90
30572;DHT22;17348;50.948;10.696;2023-12-28T07:39:46;7.90;99.90
30572;DHT22;17348;50.948;10.696;2023-12-28T07:42:48;7.90;99.90
30572;DHT22;17348;50.948;10.696;2023-12-28T07:45:52;7.90;99.90
30572;DHT22;17348;50.948;10.696;2023-12-28T07:48:54;7.90;99.90
30572;DHT22;17348;50.948;10.696;2023-12-28T07:51:57;7.90;99.90
30572;DHT22;17348;50.948;10.696;2023-12-28T07:54:59;8.00;99.90
30572;DHT22;17348;50.948;10.696;2023-12-28T07:58:02;7.90;99.90
30572;DHT22;17348;50.948;10.696;2023-12-28T08:01:09;8.00;99.90
30572;DHT22;17348;50.948;10.696;2023-12-28T08:04:12;8.00;99.90
30572;DHT22;17348;50.948;10.696;2023-12-28T08:07:14;8.00;99.90
30572;DHT22;17348;50.948;10.696;2023-12-28T08:10:16;8.00;99.90
30572;DHT22;17348;50.948;10.696;2023-12-28T08:13:19;8.00;99.90
30572;DHT22;17348;50.948;10.696;2023-12-28T08:16:23;8.10;99.90
30572;DHT22;17348;50.948;10.696;2023-12-28T08:19:25;8.10;99.90
30572;DHT22;17348;50.948;10.696;2023-12-28T08:22:27;8.10;99.90
30572;DHT22;17348;50.948;10.696;2023-12-28T08:25:30;8.10;99.90
30572;DHT22;17348;50.948;10.696;2023-12-28T08:28:32;8.20;99.90
30572;DHT22;17348;50.948;10.696;2023-12-28T08:31:36;8.20;99.90
30572;DHT22;17348;50.948;10.696;2023-12-28T08:34:38;8.20;99.90
30572;DHT22;17348;50.948;10.696;2023-12-28T08:37:40;8.30;99.90
30572;DHT22;17348;50.948;10.696;2023-12-28T08:40:43;8.30;99.90
30572;DHT22;17348;50.948;10.696;2023-12-28T08:43:46;8.30;99.90
30572;DHT22;17348;50.948;10.696;2023-12-28T08:46:53;8.30;99.90
30572;DHT22;17348;50.948;10.696;2023-12-28T08:49:55;8.30;99.90
30572;DHT22;17348;50.948;10.696;2023-12-28T08:52:57;8.30;99.90
30572;DHT22;17348;50.948;10.696;2023-12-28T08:56:00;8.30;99.90
30572;DHT22;17348;50.948;10.696;2023-12-28T08:59:02;8.30;99.90
30572;DHT22;17348;50.948;10.696;2023-12-28T09:02:07;8.30;99.90
30572;DHT22;17348;50.948;10.696;2023-12-28T09:05:09;8.40;99.90
30572;DHT22;17348;50.948;10.696;2023-12-28T09:08:12;8.40;99.90
30572;DHT22;17348;50.948;10.696;2023-12-28T09:11:14;8.40;99.90
30572;DHT22;17348;50.948;10.696;2023-12-28T09:14:19;8.40;99.90
30572;DHT22;17348;50.948;10.696;2023-12-28T09:17:23;8.40;99.90
30572;DHT22;17348;50.948;10.696;2023-12-28T09:20:25;8.40;99.90
30572;DHT22;17348;50.948;10.696;2023-12-28T09:23:28;8.40;99.90
30572;DHT22;17348;50.948;10.696;2023-12-28T09:26:30;8.40;99.90
30572;DHT22;17348;50.948;10.696;2023-12-28T09:29:33;8.50;99.90
30572;DHT22;17348;50.948;10.696;2023-12-28T09:32:37;8.40;99.90
30572;DHT22;17348;50.948;10.696;2023-12-28T09:35:40;8.50;99.90
30572;DHT22;17348;50.948;10.696;2023-12-28T09:38:42;8.50;99.90
30572;DHT22;17348;50.948;10.696;2023-12-28T09:41:51;8.50;99.90
30572;DHT22;17348;50.948;10.696;2023-12-28T09:44:56;8.50;99.90
30572;DHT22;17348;50.948;10.696;2023-12-28T09:48:01;8.60;99.90
30572;DHT22;17348;50.948;10.696;2023-12-28T09:51:05;8.60;99.90
30572;DHT22;17348;50.948;10.696;2023-12-28T09:54:08;8.60;99.90
30572;DHT22;17348;50.948;10.696;2023-12-28T09:57:11;8.60;99.90
30572;DHT22;17348;50.948;10.696;2023-12-28T10:00:13;8.60;99.90
30572;DHT22;17348;50.948;10.696;2023-12-28T10:03:18;8.60;99.90
30572;DHT22;17348;50.948;10.696;2023-12-28T10:06:20;8.60;99.90
30572;DHT22;17348;50.948;10.696;2023-12-28T10:09:22;8.70;99.90
30572;DHT22;17348;50.948;10.696;2023-12-28T10:12:28;8.70;99.90
30572;DHT22;17348;50.948;10.696;2023-12-28T10:15:31;8.70;99.90
30572;DHT22;17348;50.948;10.696;2023-12-28T10:18:34;8.80;99.90
30572;DHT22;17348;50.948;10.696;2023-12-28T10:21:39;8.80;99.90
30572;DHT22;17348;50.948;10.696;2023-12-28T10:24:42;8.90;99.90
30572;DHT22;17348;50.948;10.696;2023-12-28T10:27:45;8.90;99.90
30572;DHT22;17348;50.948;10.696;2023-12-28T10:30:47;9.00;99.90
30572;DHT22;17348;50.948;10.696;2023-12-28T10:33:51;9.00;99.90
30572;DHT22;17348;50.948;10.696;2023-12-28T10:36:53;9.10;99.90
30572;DHT22;17348;50.948;10.696;2023-12-28T10:39:57;9.20;99.90
30572;DHT22;17348;50.948;10.696;2023-12-28T10:43:04;9.30;99.90
30572;DHT22;17348;50.948;10.696;2023-12-28T10:46:08;9.30;99.90
30572;DHT22;17348;50.948;10.696;2023-12-28T10:49:16;9.40;99.90
30572;DHT22;17348;50.948;10.696;2023-12-28T10:52:20;9.40;99.90
30572;DHT22;17348;50.948;10.696;2023-12-28T10:55:32;9.50;99.90
30572;DHT22;17348;50.948;10.696;2023-12-28T10:58:41;9.60;99.90
30572;DHT22;17348;50.948;10.696;2023-12-28T11:01:48;9.70;99.90
30572;DHT22;17348;50.948;10.696;2023-12-28T11:04:56;9.70;99.90
30572;DHT22;17348;50.948;10.696;2023-12-28T11:07:59;9.80;99.90
30572;DHT22;17348;50.948;10.696;2023-12-28T11:11:02;10.00;99.90
30572;DHT22;17348;50.948;10.696;2023-12-28T11:14:07;10.10;99.90
30572;DHT22;17348;50.948;10.696;2023-12-28T11:17:10;10.20;99.90
30572;DHT22;17348;50.948;10.696;2023-12-28T11:20:17;10.30;99.90
30572;DHT22;17348;50.948;10.696;2023-12-28T11:23:19;10.40;99.90
30572;DHT22;17348;50.948;10.696;2023-12-28T11:26:22;10.40;99.90
30572;DHT22;17348;50.948;10.696;2023-12-28T11:29:25;10.50;99.90
30572;DHT22;17348;50.948;10.696;2023-12-28T11:32:27;10.70;99.90
30572;DHT22;17348;50.948;10.696;2023-12-28T11:35:35;10.70;99.90
30572;DHT22;17348;50.948;10.696;2023-12-28T11:38:39;10.90;99.90
30572;DHT22;17348;50.948;10.696;2023-12-28T11:41:45;10.90;99.90
30572;DHT22;17348;50.948;10.696;2023-12-28T11:44:53;11.00;99.90
30572;DHT22;17348;50.948;10.696;2023-12-28T11:47:59;11.10;99.90
30572;DHT22;17348;50.948;10.696;2023-12-28T11:51:03;11.10;99.90
30572;DHT22;17348;50.948;10.696;2023-12-28T11:54:06;11.20;99.90
30572;DHT22;17348;50.948;10.696;2023-12-28T11:57:08;11.20;99.90
30572;DHT22;17348;50.948;10.696;2023-12-28T12:00:11;11.20;99.90
30572;DHT22;17348;50.948;10.696;2023-12-28T12:03:15;11.20;99.90
30572;DHT22;17348;50.948;10.696;2023-12-28T12:06:19;11.10;99.90
30572;DHT22;17348;50.948;10.696;2023-12-28T12:09:21;11.10;99.90
30572;DHT22;17348;50.948;10.696;2023-12-28T12:12:24;11.10;99.90
30572;DHT22;17348;50.948;10.696;2023-12-28T12:15:27;11.10;99.90
30572;DHT22;17348;50.948;10.696;2023-12-28T12:18:30;11.10;99.90
30572;DHT22;17348;50.948;10.696;2023-12-28T12:21:34;11.20;99.90
30572;DHT22;17348;50.948;10.696;2023-12-28T12:24:41;11.10;99.90
30572;DHT22;17348;50.948;10.696;2023-12-28T12:27:46;11.10;99.90
30572;DHT22;17348;50.948;10.696;2023-12-28T12:30:53;11.20;99.90
30572;DHT22;17348;50.948;10.696;2023-12-28T12:33:56;11.10;99.90
30572;DHT22;17348;50.948;10.696;2023-12-28T12:37:00;11.20;99.90
30572;DHT22;17348;50.948;10.696;2023-12-28T12:40:04;11.20;99.90
30572;DHT22;17348;50.948;10.696;2023-12-28T12:43:07;11.20;99.90
30572;DHT22;17348;50.948;10.696;2023-12-28T12:46:11;11.20;99.90
30572;DHT22;17348;50.948;10.696;2023-12-28T12:49:13;11.20;99.90
30572;DHT22;17348;50.948;10.696;2023-12-28T12:52:17;11.20;99.90
30572;DHT22;17348;50.948;10.696;2023-12-28T12:55:23;11.20;99.90
30572;DHT22;17348;50.948;10.696;2023-12-28T12:58:26;11.20;99.90
30572;DHT22;17348;50.948;10.696;2023-12-28T13:01:31;11.10;99.90
30572;DHT22;17348;50.948;10.696;2023-12-28T13:04:38;11.00;99.90
30572;DHT22;17348;50.948;10.696;2023-12-28T13:07:42;11.00;99.90
30572;DHT22;17348;50.948;10.696;2023-12-28T13:10:44;10.90;99.90
30572;DHT22;17348;50.948;10.696;2023-12-28T13:13:47;10.90;99.90
30572;DHT22;17348;50.948;10.696;2023-12-28T13:16:49;10.90;99.90
30572;DHT22;17348;50.948;10.696;2023-12-28T13:19:55;10.90;99.90
30572;DHT22;17348;50.948;10.696;2023-12-28T13:22:59;10.80;99.90
30572;DHT22;17348;50.948;10.696;2023-12-28T13:26:04;10.80;99.90
30572;DHT22;17348;50.948;10.696;2023-12-28T13:29:06;10.70;99.90
30572;DHT22;17348;50.948;10.696;2023-12-28T13:32:08;10.70;99.90
30572;DHT22;17348;50.948;10.696;2023-12-28T13:35:13;10.70;99.90
30572;DHT22;17348;50.948;10.696;2023-12-28T13:38:17;10.60;99.90
30572;DHT22;17348;50.948;10.696;2023-12-28T13:41:20;10.60;99.90
30572;DHT22;17348;50.948;10.696;2023-12-28T13:44:22;10.50;99.90
30572;DHT22;17348;50.948;10.696;2023-12-28T13:47:25;10.40;99.90
30572;DHT22;17348;50.948;10.696;2023-12-28T13:50:27;10.40;99.90
30572;DHT22;17348;50.948;10.696;2023-12-28T13:53:31;10.30;99.90
30572;DHT22;17348;50.948;10.696;2023-12-28T13:56:36;10.30;99.90
30572;DHT22;17348;50.948;10.696;2023-12-28T13:59:44;10.20;99.90
30572;DHT22;17348;50.948;10.696;2023-12-28T14:02:49;10.10;99.90
30572;DHT22;17348;50.948;10.696;2023-12-28T14:05:53;10.10;99.90
30572;DHT22;17348;50.948;10.696;2023-12-28T14:08:57;10.10;99.90
30572;DHT22;17348;50.948;10.696;2023-12-28T14:11:59;10.10;99.90
30572;DHT22;17348;50.948;10.696;2023-12-28T14:15:02;10.10;99.90
30572;DHT22;17348;50.948;10.696;2023-12-28T14:18:05;10.10;99.90
30572;DHT22;17348;50.948;10.696;2023-12-28T14:21:10;10.00;99.90
30572;DHT22;17348;50.948;10.696;2023-12-28T14:24:17;10.00;99.90
30572;DHT22;17348;50.948;10.696;2023-12-28T14:27:20;9.90;99.90
30572;DHT22;17348;50.948;10.696;2023-12-28T14:30:23;9.80;99.90
30572;DHT22;17348;50.948;10.696;2023-12-28T14:33:26;9.80;99.90
30572;DHT22;17348;50.948;10.696;2023-12-28T14:36:31;9.70;99.90
30572;DHT22;17348;50.948;10.696;2023-12-28T14:39:36;9.60;99.90
30572;DHT22;17348;50.948;10.696;2023-12-28T14:42:39;9.60;99.90
30572;DHT22;17348;50.948;10.696;2023-12-28T14:45:41;9.50;99.90
30572;DHT22;17348;50.948;10.696;2023-12-28T14:48:43;9.50;99.90
30572;DHT22;17348;50.948;10.696;2023-12-28T14:51:46;9.40;99.90
30572;DHT22;17348;50.948;10.696;2023-12-28T14:54:50;9.40;99.90
30572;DHT22;17348;50.948;10.696;2023-12-28T14:57:57;9.20;99.90
30572;DHT22;17348;50.948;10.696;2023-12-28T15:01:00;9.20;99.90
30572;DHT22;17348;50.948;10.696;2023-12-28T15:04:02;9.10;99.90
30572;DHT22;17348;50.948;10.696;2023-12-28T15:07:05;9.00;99.90
30572;DHT22;17348;50.948;10.696;2023-12-28T15:10:10;9.00;99.90
30572;DHT22;17348;50.948;10.696;2023-12-28T15:13:14;8.90;99.90
30572;DHT22;17348;50.948;10.696;2023-12-28T15:16:18;8.90;99.90
30572;DHT22;17348;50.948;10.696;2023-12-28T15:19:21;8.80;99.90
30572;DHT22;17348;50.948;10.696;2023-12-28T15:22:23;8.80;99.90
30572;DHT22;17348;50.948;10.696;2023-12-28T15:25:30;8.70;99.90
30572;DHT22;17348;50.948;10.696;2023-12-28T15:28:32;8.60;99.90
30572;DHT22;17348;50.948;10.696;2023-12-28T15:31:37;8.60;99.90
30572;DHT22;17348;50.948;10.696;2023-12-28T15:34:40;8.60;99.90
30572;DHT22;17348;50.948;10.696;2023-12-28T15:37:42;8.50;99.90
30572;DHT22;17348;50.948;10.696;2023-12-28T15:40:46;8.40;99.90
30572;DHT22;17348;50.948;10.696;2023-12-28T15:43:48;8.40;99.90
30572;DHT22;17348;50.948;10.696;2023-12-28T15:46:51;8.40;99.90
30572;DHT22;17348;50.948;10.696;2023-12-28T15:49:53;8.30;99.90
30572;DHT22;17348;50.948;10.696;2023-12-28T15:52:55;8.30;99.90
30572;DHT22;17348;50.948;10.696;2023-12-28T15:55:59;8.30;99.90
30572;DHT22;17348;50.948;10.696;2023-12-28T15:59:02;8.20;99.90
30572;DHT22;17348;50.948;10.696;2023-12-28T16:02:05;8.20;99.90
30572;DHT22;17348;50.948;10.696;2023-12-28T16:05:08;8.10;99.90
30572;DHT22;17348;50.948;10.696;2023-12-28T16:08:10;8.10;99.90
30572;DHT22;17348;50.948;10.696;2023-12-28T16:11:14;8.00;99.90
30572;DHT22;17348;50.948;10.696;2023-12-28T16:14:17;8.10;99.90
30572;DHT22;17348;50.948;10.696;2023-12-28T16:17:22;8.00;99.90
30572;DHT22;17348;50.948;10.696;2023-12-28T16:20:25;8.00;99.90
30572;DHT22;17348;50.948;10.696;2023-12-28T16:23:27;8.00;99.90
30572;DHT22;17348;50.948;10.696;2023-12-28T16:26:31;8.00;99.90
30572;DHT22;17348;50.948;10.696;2023-12-28T16:29:36;8.00;99.90
30572;DHT22;17348;50.948;10.696;2023-12-28T16:32:38;8.00;99.90
30572;DHT22;17348;50.948;10.696;2023-12-28T16:35:41;7.90;99.90
30572;DHT22;17348;50.948;10.696;2023-12-28T16:38:43;7.90;99.90
30572;DHT22;17348;50.948;10.696;2023-12-28T16:41:47;7.90;99.90
30572;DHT22;17348;50.948;10.696;2023-12-28T16:44:49;7.90;99.90
30572;DHT22;17348;50.948;10.696;2023-12-28T16:47:51;7.90;99.90
30572;DHT22;17348;50.948;10.696;2023-12-28T16:50:54;8.00;99.90
30572;DHT22;17348;50.948;10.696;2023-12-28T16:54:01;7.90;99.90
30572;DHT22;17348;50.948;10.696;2023-12-28T16:57:05;8.00;99.90
30572;DHT22;17348;50.948;10.696;2023-12-28T17:00:09;8.00;99.90
30572;DHT22;17348;50.948;10.696;2023-12-28T17:03:13;8.00;99.90
30572;DHT22;17348;50.948;10.696;2023-12-28T17:06:15;8.10;99.90
30572;DHT22;17348;50.948;10.696;2023-12-28T17:09:18;8.10;99.90
30572;DHT22;17348;50.948;10.696;2023-12-28T17:12:27;8.10;99.90
30572;DHT22;17348;50.948;10.696;2023-12-28T17:15:33;8.20;99.90
30572;DHT22;17348;50.948;10.696;2023-12-28T17:18:38;8.20;99.90
30572;DHT22;17348;50.948;10.696;2023-12-28T17:21:42;8.20;99.90
30572;DHT22;17348;50.948;10.696;2023-12-28T17:24:51;8.20;99.90
30572;DHT22;17348;50.948;10.696;2023-12-28T17:28:00;8.20;99.90
30572;DHT22;17348;50.948;10.696;2023-12-28T17:31:06;8.20;99.90
30572;DHT22;17348;50.948;10.696;2023-12-28T17:34:12;8.20;99.90
30572;DHT22;17348;50.948;10.696;2023-12-28T17:37:14;8.20;99.90
30572;DHT22;17348;50.948;10.696;2023-12-28T17:40:18;8.20;99.90
30572;DHT22;17348;50.948;10.696;2023-12-28T17:43:28;8.20;99.90
30572;DHT22;17348;50.948;10.696;2023-12-28T17:46:40;8.30;99.90
30572;DHT22;17348;50.948;10.696;2023-12-28T17:49:45;8.30;99.90
30572;DHT22;17348;50.948;10.696;2023-12-28T17:52:49;8.30;99.90
30572;DHT22;17348;50.948;10.696;2023-12-28T17:55:52;8.30;99.90
30572;DHT22;17348;50.948;10.696;2023-12-28T17:58:55;8.30;99.90
30572;DHT22;17348;50.948;10.696;2023-12-28T18:01:58;8.30;99.90
30572;DHT22;17348;50.948;10.696;2023-12-28T18:05:00;8.30;99.90
30572;DHT22;17348;50.948;10.696;2023-12-28T18:08:02;8.30;99.90
30572;DHT22;17348;50.948;10.696;2023-12-28T18:11:05;8.40;99.90
30572;DHT22;17348;50.948;10.696;2023-12-28T18:14:08;8.30;99.90
30572;DHT22;17348;50.948;10.696;2023-12-28T18:17:11;8.30;99.90
30572;DHT22;17348;50.948;10.696;2023-12-28T18:20:13;8.30;99.90
30572;DHT22;17348;50.948;10.696;2023-12-28T18:23:16;8.30;99.90
30572;DHT22;17348;50.948;10.696;2023-12-28T18:26:18;8.30;99.90
30572;DHT22;17348;50.948;10.696;2023-12-28T18:29:22;8.30;99.90
30572;DHT22;17348;50.948;10.696;2023-12-28T18:32:24;8.30;99.90
30572;DHT22;17348;50.948;10.696;2023-12-28T18:35:26;8.30;99.90
30572;DHT22;17348;50.948;10.696;2023-12-28T18:38:28;8.40;99.90
30572;DHT22;17348;50.948;10.696;2023-12-28T18:41:31;8.30;99.90
30572;DHT22;17348;50.948;10.696;2023-12-28T18:44:34;8.40;99.90
30572;DHT22;17348;50.948;10.696;2023-12-28T18:47:38;8.40;99.90
30572;DHT22;17348;50.948;10.696;2023-12-28T18:50:41;8.40;99.90
30572;DHT22;17348;50.948;10.696;2023-12-28T18:53:44;8.40;99.90
30572;DHT22;17348;50.948;10.696;2023-12-28T18:56:47;8.40;99.90
30572;DHT22;17348;50.948;10.696;2023-12-28T18:59:51;8.40;99.90
30572;DHT22;17348;50.948;10.696;2023-12-28T19:02:53;8.40;99.90
30572;DHT22;17348;50.948;10.696;2023-12-28T19:05:56;8.40;99.90
30572;DHT22;17348;50.948;10.696;2023-12-28T19:08:58;8.40;99.90
30572;DHT22;17348;50.948;10.696;2023-12-28T19:12:03;8.40;99.90
30572;DHT22;17348;50.948;10.696;2023-12-28T19:15:08;8.50;99.90